Flight Track Log - Related Links

Times and Time Zones

All times are in EDT time to prevent confusion due to time zone crossing. See the ASQ4283 flight status page for this flight to view local times or setup timezone preferences in your user account.


Time Position Orientation Groundspeed Altitude Reporting Facility
EDT Latitude Longitude Course Direction KTS MPH feet Rate Location/Type
Sun 06:12:30 AM 35.7789 -84.0950 349° North 181 208 4,700  Level Atlanta Center
Sun 06:13:30 AM 35.8414 -84.1131 347° North 157 181 7,100 2,100 Climbing Atlanta Center
Sun 06:14:00 AM 36.1077 -83.9352 349° North  Level FlightAware Approximate
Sun 06:14:30 AM 35.9081 -84.1183 356° North 194 223 8,900  Level Atlanta Center
Sun 06:15:00 AM 36.1915 -83.9583 345° North  Level FlightAware Approximate
Sun 06:15:30 AM 35.9811 -84.1336 350° North 226 260 10,600  Level Atlanta Center
Sun 06:16:00 AM 36.2745 -83.9859 345° North  Level FlightAware Approximate
Sun 06:17:00 AM 36.3581 -84.0103 349° North  Level FlightAware Approximate
Sun 06:17:32 AM 36.1422 -84.1528 355° North 294 338 14,100  Level Indianapolis Center
Sun 06:18:33 AM 36.2258 -84.1653 353° North 302 348 15,400 1,190 Climbing Indianapolis Center
Sun 06:19:33 AM 36.3161 -84.1772 354° North 319 367 16,500 1,100 Climbing Indianapolis Center
Sun 06:20:33 AM 36.4100 -84.1917 353° North 335 386 17,600 942 Climbing Indianapolis Center
Sun 06:21:34 AM 36.5181 -84.2058 354° North 350 403 18,400 893 Climbing Indianapolis Center
Sun 06:22:34 AM 36.6217 -84.2211 353° North 366 421 19,400 1,000 Climbing Indianapolis Center
Sun 06:23:34 AM 36.7281 -84.2364 353° North 379 436 20,400 1,041 Climbing Indianapolis Center
Sun 06:24:35 AM 36.8383 -84.2528 353° North 392 451 21,500 992 Climbing Indianapolis Center
Sun 06:25:35 AM 36.9489 -84.2689 353° North 397 457 22,400 942 Climbing Indianapolis Center
Sun 06:26:36 AM 37.0639 -84.2856 353° North 409 471 23,400 992 Climbing Indianapolis Center
Sun 06:27:36 AM 37.1792 -84.3019 354° North 414 476 24,400 1,000 Climbing Indianapolis Center
Sun 06:28:36 AM 37.2936 -84.3194 353° North 414 476 25,400 992 Climbing Indianapolis Center
Sun 06:29:37 AM 37.4117 -84.3378 353° North 422 486 26,400 992 Climbing Indianapolis Center
Sun 06:30:37 AM 37.5306 -84.3542 354° North 427 491 27,400 992 Climbing Indianapolis Center
Sun 06:31:38 AM 37.6519 -84.3700 354° North 436 502 28,400 942 Climbing Indianapolis Center
Sun 06:32:38 AM 37.7700 -84.3942 351° North 430 495 29,300 950 Climbing Indianapolis Center
Sun 06:33:38 AM 37.8772 -84.4458 339° North 413 475 30,300 992 Climbing Indianapolis Center
Sun 06:34:39 AM 37.9883 -84.4956 341° North 421 484 31,300 942 Climbing Indianapolis Center
Sun 06:35:39 AM 38.0958 -84.5489 339° North 416 479 32,200 744 Climbing Indianapolis Center
Sun 06:36:40 AM 38.2131 -84.5978 342° North 436 502 32,800 595 Climbing Indianapolis Center
Sun 06:37:40 AM 38.3306 -84.6517 340° North 446 513 33,400 595 Climbing Indianapolis Center
Sun 06:38:41 AM 38.4500 -84.7075 340° North 455 524 34,000 298 Climbing Indianapolis Center
Sun 06:39:41 AM 38.5747 -84.7639 341° North 470 541 34,000  Level Indianapolis Center
Sun 06:40:42 AM 38.7072 -84.8278 339° North 499 574 34,000  Level Indianapolis Center
Sun 06:41:42 AM 38.8408 -84.8906 340° North 509 586 34,000  Level Indianapolis Center
Sun 06:42:42 AM 38.9781 -84.9533 340° North 523 602 34,000  Level Indianapolis Center
Sun 06:43:43 AM 39.1136 -85.0172 340° North 521 600 34,000 -397 Level Indianapolis Center
Sun 06:44:43 AM 39.2483 -85.0800 340° North 519 597 33,200 -1,686 Descending Indianapolis Center
Sun 06:45:44 AM 39.3844 -85.1444 340° North 522 601 30,600 -2,529 Descending Indianapolis Center
Sun 06:46:44 AM 39.5156 -85.2072 340° North 512 589 28,100 -1,289 Descending Indianapolis Center
Sun 06:47:45 AM 39.6447 -85.2683 340° North 501 577 28,000 -49 Descending Indianapolis Center
Sun 06:48:46 AM 39.7742 -85.3300 340° North 500 575 28,000 -595 Level Indianapolis Center
Sun 06:49:46 AM 39.9286 -85.4053 340° North 499 574 26,800 -992 Descending Indianapolis Center
Sun 06:50:47 AM 40.0575 -85.4669 340° North 498 573 26,000 -397 Descending Indianapolis Center
Sun 06:51:47 AM 40.1811 -85.5267 340° North 483 556 26,000  Level Indianapolis Center
Sun 06:52:48 AM 40.3056 -85.5875 340° North 481 554 26,000  Level Indianapolis Center
Sun 06:53:24 AM 40.3806 -85.6228 340° North 483 556 26,000  Level Chicago Center
Sun 06:54:25 AM 40.4800 -85.7322 320° Northwest 479 551 26,000 -99 Level Chicago Center
Sun 06:55:25 AM 40.5642 -85.8656 310° West 480 552 25,800 -694 Descending Chicago Center
Sun 06:56:26 AM 40.6461 -85.9986 309° West 475 547 24,600 -1,140 Descending Chicago Center
Sun 06:57:26 AM 40.7281 -86.1347 308° West 470 541 23,500 -1,140 Descending Chicago Center
Sun 06:58:27 AM 40.8100 -86.2683 309° West 469 540 22,300 -1,140 Descending Chicago Center
Sun 06:59:27 AM 40.8892 -86.3989 309° West 457 526 21,200 -1,122 Descending Chicago Center
Sun 07:00:30 AM 40.9622 -86.5208 308° West 427 491 20,000 -1,122 Descending Chicago Center
Sun 07:01:30 AM 41.0367 -86.6425 309° West 425 489 18,900 -1,140 Descending Chicago Center
Sun 07:02:31 AM 41.1122 -86.7686 309° West 425 489 17,700 -1,339 Descending Chicago Center
Sun 07:03:31 AM 41.1836 -86.8881 308° West 418 481 16,200 -1,785 Descending Chicago Center
Sun 07:04:32 AM 41.2506 -87.0008 308° West 397 457 14,100 -2,083 Descending Chicago Center
Sun 07:05:32 AM 41.3161 -87.1111 308° West 387 445 12,000 -1,636 Descending Chicago Center
Sun 07:06:33 AM 41.3917 -87.2253 311° West 354 407 10,800 -992 Descending Chicago Center
Sun 07:07:33 AM 41.4600 -87.3075 318° Northwest 336 387 10,000 -397 Descending Chicago Center
Sun 07:08:34 AM 41.5297 -87.3894 319° Northwest 334 384 10,000  Level Chicago Center
Sun 07:09:35 AM 41.6028 -87.4689 321° Northwest 342 394 10,000  Level Chicago Center
Sun 07:10:35 AM 41.6753 -87.5503 320° Northwest 345 397 10,000  Level Chicago Center
Sun 07:11:36 AM 41.7467 -87.6314 320° Northwest 342 394 10,000 -492 Level Chicago Center
Sun 07:12:37 AM 41.8128 -87.6928 325° Northwest 290 334 9,000 -1,339 Descending Chicago Center
Sun 07:13:37 AM 41.8833 -87.7058 352° North 266 306 7,300 -992 Descending Chicago Center
Sun 07:14:38 AM 41.9589 -87.7050 360° North 270 311 7,000 -1,033 Descending Chicago Center
Sun 07:15:39 AM 42.0222 -87.7031 North 238 274 5,200 -1,672 Descending Chicago Center
Sun 07:16:40 AM 42.0747 -87.7567 323° Northwest 215 247 3,600 -1,574 Descending Chicago Center

Login

Don't have an account? Register now (free) for customized features, flight alerts, and more!